Time,TemperatureF,DewpointF,PressureIn,WindDirection,WindDirectionDegrees,WindSpeedMPH,WindSpeedGustMPH,Humidity,HourlyPrecipIn,Conditions,Clouds,dailyrainin,SoftwareType,DateUTC
2013-02-04 00:02:00,40.7,38.6,30.45,South,180,0.2,0.9,92,0.00,,---,0.00,VWS V14.01,2013-02-04 08:02:00,
2013-02-04 00:07:00,40.9,38.8,30.46,South,180,0.2,0.2,92,0.00,,---,0.00,VWS V14.01,2013-02-04 08:07:00,
2013-02-04 00:12:00,40.9,38.8,30.45,South,180,0.0,0.0,92,0.00,,---,0.00,VWS V14.01,2013-02-04 08:12:00,
2013-02-04 00:17:00,40.9,38.8,30.45,South,180,1.6,1.6,92,0.00,,---,0.00,VWS V14.01,2013-02-04 08:17:00,
2013-02-04 00:22:00,40.9,38.8,30.45,South,180,1.8,1.8,92,0.00,,---,0.00,VWS V14.01,2013-02-04 08:22:00,
2013-02-04 00:27:00,40.9,38.8,30.45,South,180,0.9,0.9,92,0.00,,---,0.00,VWS V14.01,2013-02-04 08:27:00,
2013-02-04 00:32:00,40.9,38.8,30.44,South,180,0.4,0.9,92,0.00,,---,0.00,VWS V14.01,2013-02-04 08:32:00,
2013-02-04 00:37:00,40.9,38.8,30.44,South,180,0.0,0.0,92,0.00,,---,0.00,VWS V14.01,2013-02-04 08:37:00,
2013-02-04 00:42:00,40.9,38.8,30.44,South,180,0.4,0.4,92,0.00,,---,0.00,VWS V14.01,2013-02-04 08:42:00,
2013-02-04 00:47:00,40.9,38.8,30.44,South,180,0.0,0.0,92,0.00,,---,0.00,VWS V14.01,2013-02-04 08:47:00,
2013-02-04 00:52:00,40.9,38.8,30.44,South,180,0.0,0.0,92,0.00,,---,0.00,VWS V14.01,2013-02-04 08:52:00,
2013-02-04 00:57:00,40.9,38.8,30.44,South,180,0.0,0.0,92,0.00,,---,0.00,VWS V14.01,2013-02-04 08:57:00,
2013-02-04 01:02:00,40.9,38.8,30.45,South,180,0.0,0.0,92,0.00,,---,0.00,VWS V14.01,2013-02-04 09:02:00,
2013-02-04 01:07:00,40.7,38.6,30.45,South,180,0.0,0.0,92,0.00,,---,0.00,VWS V14.01,2013-02-04 09:07:00,
2013-02-04 01:12:00,40.9,39.0,30.45,South,180,0.4,0.4,93,0.00,,---,0.00,VWS V14.01,2013-02-04 09:12:00,
2013-02-04 01:17:00,40.7,38.6,30.44,South,180,0.4,0.4,92,0.00,,---,0.00,VWS V14.01,2013-02-04 09:17:00,
2013-02-04 01:22:00,40.7,38.6,30.45,South,180,0.0,0.0,92,0.00,,---,0.00,VWS V14.01,2013-02-04 09:22:00,
2013-02-04 01:27:00,40.7,38.8,30.44,South,180,0.4,0.4,93,0.00,,---,0.00,VWS V14.01,2013-02-04 09:27:00,
2013-02-04 01:32:00,40.7,38.8,30.45,South,180,0.0,0.0,93,0.00,,---,0.00,VWS V14.01,2013-02-04 09:32:00,
2013-02-04 01:37:00,40.7,38.6,30.45,South,180,0.0,0.0,92,0.00,,---,0.00,VWS V14.01,2013-02-04 09:37:00,
2013-02-04 01:42:00,40.7,38.8,30.45,South,180,0.0,0.0,93,0.00,,---,0.00,VWS V14.01,2013-02-04 09:42:00,
2013-02-04 01:47:00,40.9,39.0,30.45,South,180,0.0,0.0,93,0.00,,---,0.00,VWS V14.01,2013-02-04 09:47:00,
2013-02-04 01:52:00,40.9,39.0,30.45,South,180,0.0,0.0,93,0.00,,---,0.00,VWS V14.01,2013-02-04 09:52:00,
2013-02-04 01:57:00,40.9,39.0,30.45,South,180,0.0,0.9,93,0.00,,---,0.00,VWS V14.01,2013-02-04 09:57:00,
2013-02-04 02:01:00,40.9,39.0,30.45,South,180,0.0,0.0,93,0.00,,---,0.00,VWS V14.01,2013-02-04 10:01:00,
2013-02-04 02:06:00,40.9,39.0,30.45,South,180,1.6,1.6,93,0.00,,---,0.00,VWS V14.01,2013-02-04 10:06:00,
2013-02-04 02:11:00,40.9,39.0,30.45,South,180,0.0,0.0,93,0.00,,---,0.00,VWS V14.01,2013-02-04 10:11:00,
2013-02-04 02:16:00,40.9,39.0,30.45,South,180,1.6,1.6,93,0.00,,---,0.00,VWS V14.01,2013-02-04 10:16:00,
2013-02-04 02:21:00,40.9,39.0,30.45,South,180,1.1,1.1,93,0.00,,---,0.00,VWS V14.01,2013-02-04 10:21:00,
2013-02-04 02:26:00,40.9,39.0,30.45,South,180,0.0,0.0,93,0.00,,---,0.00,VWS V14.01,2013-02-04 10:26:00,
2013-02-04 02:31:00,40.9,39.0,30.45,South,180,0.4,0.4,93,0.00,,---,0.00,VWS V14.01,2013-02-04 10:31:00,
2013-02-04 02:36:00,40.9,39.0,30.44,South,180,1.8,1.8,93,0.00,,---,0.00,VWS V14.01,2013-02-04 10:36:00,
2013-02-04 02:41:00,40.9,39.0,30.44,South,180,1.1,1.1,93,0.00,,---,0.00,VWS V14.01,2013-02-04 10:41:00,
2013-02-04 02:46:00,40.7,38.8,30.44,South,180,0.4,0.4,93,0.00,,---,0.00,VWS V14.01,2013-02-04 10:46:00,
2013-02-04 02:51:00,40.7,38.8,30.43,South,180,0.9,0.9,93,0.00,,---,0.00,VWS V14.01,2013-02-04 10:51:00,
2013-02-04 02:56:00,40.7,38.8,30.43,South,180,1.1,1.1,93,0.00,,---,0.00,VWS V14.01,2013-02-04 10:56:00,
2013-02-04 03:01:00,40.9,39.0,30.43,South,180,0.2,0.2,93,0.00,,---,0.00,VWS V14.01,2013-02-04 11:01:00,
2013-02-04 03:06:00,40.9,39.0,30.43,South,180,0.0,0.2,93,0.00,,---,0.00,VWS V14.01,2013-02-04 11:06:00,
2013-02-04 03:11:00,41.0,39.1,30.44,South,180,0.2,0.4,93,0.00,,---,0.00,VWS V14.01,2013-02-04 11:11:00,
2013-02-04 03:16:00,41.0,39.1,30.43,South,180,0.0,0.0,93,0.00,,---,0.00,VWS V14.01,2013-02-04 11:16:00,
2013-02-04 03:21:00,40.9,39.0,30.44,South,180,0.0,0.0,93,0.00,,---,0.00,VWS V14.01,2013-02-04 11:21:00,
2013-02-04 03:26:00,40.9,39.0,30.44,South,180,0.7,1.3,93,0.00,,---,0.00,VWS V14.01,2013-02-04 11:26:00,
2013-02-04 03:31:00,40.9,39.0,30.44,South,180,0.7,0.7,93,0.00,,---,0.00,VWS V14.01,2013-02-04 11:31:00,
2013-02-04 03:36:00,40.9,39.0,30.45,South,180,0.0,0.0,93,0.00,,---,0.00,VWS V14.01,2013-02-04 11:36:00,
2013-02-04 03:41:00,40.7,38.8,30.45,South,180,0.0,0.0,93,0.00,,---,0.00,VWS V14.01,2013-02-04 11:41:00,
2013-02-04 03:46:00,40.7,38.8,30.44,South,180,1.1,1.1,93,0.00,,---,0.00,VWS V14.01,2013-02-04 11:46:00,
2013-02-04 03:51:00,40.7,38.8,30.44,South,180,0.0,0.9,93,0.00,,---,0.00,VWS V14.01,2013-02-04 11:51:00,
2013-02-04 03:56:00,40.7,38.8,30.44,South,180,0.0,0.0,93,0.00,,---,0.00,VWS V14.01,2013-02-04 11:56:00,
2013-02-04 04:01:00,40.7,38.8,30.44,South,180,0.4,0.9,93,0.00,,---,0.00,VWS V14.01,2013-02-04 12:01:00,
2013-02-04 04:06:00,40.7,38.8,30.43,South,180,0.2,0.4,93,0.00,,---,0.00,VWS V14.01,2013-02-04 12:06:00,
2013-02-04 04:11:00,40.7,38.8,30.43,South,180,0.7,0.7,93,0.00,,---,0.00,VWS V14.01,2013-02-04 12:11:00,
2013-02-04 04:16:00,40.7,38.8,30.43,South,180,0.0,0.0,93,0.00,,---,0.00,VWS V14.01,2013-02-04 12:16:00,
2013-02-04 04:21:00,40.7,38.8,30.42,South,180,0.0,0.0,93,0.00,,---,0.00,VWS V14.01,2013-02-04 12:21:00,
2013-02-04 04:26:00,40.7,38.8,30.42,South,180,0.0,0.0,93,0.00,,---,0.00,VWS V14.01,2013-02-04 12:26:00,
2013-02-04 04:31:00,40.7,38.8,30.41,South,180,0.4,0.4,93,0.00,,---,0.00,VWS V14.01,2013-02-04 12:31:00,
2013-02-04 04:36:00,40.7,38.8,30.41,South,180,0.0,0.0,93,0.00,,---,0.00,VWS V14.01,2013-02-04 12:36:00,
2013-02-04 04:41:00,40.7,38.8,30.41,South,180,0.0,0.0,93,0.00,,---,0.00,VWS V14.01,2013-02-04 12:41:00,
2013-02-04 04:46:00,40.5,38.6,30.41,South,180,0.0,0.0,93,0.00,,---,0.00,VWS V14.01,2013-02-04 12:46:00,
2013-02-04 04:51:00,40.5,38.6,30.41,South,180,0.0,0.0,93,0.00,,---,0.00,VWS V14.01,2013-02-04 12:51:00,
2013-02-04 04:56:00,40.5,38.6,30.41,South,180,0.0,0.0,93,0.00,,---,0.00,VWS V14.01,2013-02-04 12:56:00,
2013-02-04 05:01:00,40.5,38.6,30.41,South,180,0.7,0.7,93,0.00,,---,0.00,VWS V14.01,2013-02-04 13:01:00,
2013-02-04 05:06:00,40.3,38.4,30.41,South,180,0.0,0.0,93,0.00,,---,0.00,VWS V14.01,2013-02-04 13:06:00,
2013-02-04 05:11:00,40.3,38.4,30.41,South,180,0.0,0.0,93,0.00,,---,0.00,VWS V14.01,2013-02-04 13:11:00,
2013-02-04 05:16:00,40.1,38.2,30.40,South,180,0.0,0.0,93,0.00,,---,0.00,VWS V14.01,2013-02-04 13:16:00,
2013-02-04 05:21:00,40.0,38.1,30.41,South,180,0.0,0.0,93,0.00,,---,0.00,VWS V14.01,2013-02-04 13:21:00,
2013-02-04 05:26:00,40.0,38.1,30.41,South,180,0.0,0.0,93,0.00,,---,0.00,VWS V14.01,2013-02-04 13:26:00,
2013-02-04 05:31:00,40.0,38.1,30.41,South,180,0.0,0.0,93,0.00,,---,0.00,VWS V14.01,2013-02-04 13:31:00,
2013-02-04 05:36:00,39.8,38.0,30.40,South,180,0.0,0.0,93,0.00,,---,0.00,VWS V14.01,2013-02-04 13:36:00,
2013-02-04 05:41:00,39.8,38.0,30.40,South,180,0.0,0.0,93,0.00,,---,0.00,VWS V14.01,2013-02-04 13:41:00,
2013-02-04 05:46:00,39.6,37.8,30.40,South,180,0.0,0.0,93,0.00,,---,0.00,VWS V14.01,2013-02-04 13:46:00,
2013-02-04 05:51:00,39.4,37.5,30.40,South,180,0.0,0.0,93,0.00,,---,0.00,VWS V14.01,2013-02-04 13:51:00,
2013-02-04 05:56:00,39.2,37.3,30.40,South,180,0.0,0.0,93,0.00,,---,0.00,VWS V14.01,2013-02-04 13:56:00,
2013-02-04 06:01:00,39.2,37.3,30.41,South,180,0.0,0.0,93,0.00,,---,0.00,VWS V14.01,2013-02-04 14:01:00,
2013-02-04 06:06:00,39.1,37.2,30.41,South,180,0.0,0.0,93,0.00,,---,0.00,VWS V14.01,2013-02-04 14:06:00,
2013-02-04 06:11:00,39.1,37.2,30.41,South,180,0.0,0.0,93,0.00,,---,0.00,VWS V14.01,2013-02-04 14:11:00,
2013-02-04 06:16:00,38.9,36.8,30.40,South,180,1.1,1.1,92,0.00,,---,0.00,VWS V14.01,2013-02-04 14:16:00,
2013-02-04 06:21:00,38.7,36.6,30.40,South,180,1.3,1.6,92,0.00,,---,0.00,VWS V14.01,2013-02-04 14:21:00,
2013-02-04 06:26:00,38.9,36.8,30.40,South,180,0.0,0.0,92,0.00,,---,0.00,VWS V14.01,2013-02-04 14:26:00,
2013-02-04 06:31:00,38.7,36.6,30.40,South,180,0.0,0.0,92,0.00,,---,0.00,VWS V14.01,2013-02-04 14:31:00,
2013-02-04 06:36:00,38.7,36.6,30.40,South,180,1.1,1.1,92,0.00,,---,0.00,VWS V14.01,2013-02-04 14:36:00,
2013-02-04 06:41:00,38.7,36.6,30.40,South,180,0.0,0.0,92,0.00,,---,0.00,VWS V14.01,2013-02-04 14:41:00,
2013-02-04 06:46:00,38.5,36.4,30.40,South,180,0.0,0.0,92,0.00,,---,0.00,VWS V14.01,2013-02-04 14:46:00,
2013-02-04 06:51:00,38.5,36.4,30.40,South,180,0.0,0.0,92,0.00,,---,0.00,VWS V14.01,2013-02-04 14:51:00,
2013-02-04 06:56:00,38.3,36.2,30.39,South,180,0.0,0.0,92,0.00,,---,0.00,VWS V14.01,2013-02-04 14:56:00,
2013-02-04 07:01:00,38.3,36.2,30.39,South,180,0.0,0.0,92,0.00,,---,0.00,VWS V14.01,2013-02-04 15:01:00,
2013-02-04 07:06:00,38.2,36.1,30.40,South,180,0.0,0.0,92,0.00,,---,0.00,VWS V14.01,2013-02-04 15:06:00,
2013-02-04 07:11:00,38.0,35.9,30.40,South,180,0.0,0.0,92,0.00,,---,0.00,VWS V14.01,2013-02-04 15:11:00,
2013-02-04 07:16:00,37.8,35.7,30.41,South,180,0.0,0.0,92,0.00,,---,0.00,VWS V14.01,2013-02-04 15:16:00,
2013-02-04 07:21:00,37.6,35.5,30.41,South,180,0.0,0.0,92,0.00,,---,0.00,VWS V14.01,2013-02-04 15:21:00,
2013-02-04 07:26:00,37.4,35.3,30.40,South,180,0.0,0.0,92,0.00,,---,0.00,VWS V14.01,2013-02-04 15:26:00,
2013-02-04 07:31:00,37.4,35.3,30.40,South,180,0.0,0.0,92,0.00,,---,0.00,VWS V14.01,2013-02-04 15:31:00,
2013-02-04 07:36:00,37.3,35.2,30.40,South,180,0.0,0.0,92,0.00,,---,0.00,VWS V14.01,2013-02-04 15:36:00,
2013-02-04 07:41:00,37.3,35.2,30.41,South,180,0.0,0.0,92,0.00,,---,0.00,VWS V14.01,2013-02-04 15:41:00,
2013-02-04 07:46:00,37.3,35.2,30.41,South,180,0.4,0.4,92,0.00,,---,0.00,VWS V14.01,2013-02-04 15:46:00,
2013-02-04 07:51:00,37.3,35.2,30.39,South,180,1.8,1.8,92,0.00,,---,0.00,VWS V14.01,2013-02-04 15:51:00,
2013-02-04 07:56:00,37.3,35.2,30.40,South,180,0.0,0.0,92,0.00,,---,0.00,VWS V14.01,2013-02-04 15:56:00,
2013-02-04 08:01:00,37.3,35.2,30.40,South,180,0.0,0.0,92,0.00,,---,0.00,VWS V14.01,2013-02-04 16:01:00,
2013-02-04 08:06:00,37.3,35.2,30.40,South,180,0.0,0.0,92,0.00,,---,0.00,VWS V14.01,2013-02-04 16:06:00,
2013-02-04 08:11:00,37.4,35.3,30.40,South,180,0.0,0.0,92,0.00,,---,0.00,VWS V14.01,2013-02-04 16:11:00,
2013-02-04 08:16:00,37.6,35.5,30.40,South,180,0.7,0.7,92,0.00,,---,0.00,VWS V14.01,2013-02-04 16:16:00,
2013-02-04 08:21:00,37.8,35.7,30.40,South,180,0.9,1.1,92,0.00,,---,0.00,VWS V14.01,2013-02-04 16:21:00,
2013-02-04 08:26:00,38.2,36.1,30.40,South,180,0.4,0.7,92,0.00,,---,0.00,VWS V14.01,2013-02-04 16:26:00,
2013-02-04 08:31:00,38.3,36.2,30.41,South,180,0.0,0.0,92,0.00,,---,0.00,VWS V14.01,2013-02-04 16:31:00,
2013-02-04 08:36:00,38.5,36.4,30.41,South,180,0.0,0.0,92,0.00,,---,0.00,VWS V14.01,2013-02-04 16:36:00,
2013-02-04 08:41:00,38.5,36.4,30.41,South,180,0.0,0.0,92,0.00,,---,0.00,VWS V14.01,2013-02-04 16:41:00,
2013-02-04 08:46:00,38.9,36.8,30.42,South,180,0.0,0.0,92,0.00,,---,0.00,VWS V14.01,2013-02-04 16:46:00,
2013-02-04 08:51:00,38.9,37.0,30.41,South,180,0.0,0.0,93,0.00,,---,0.00,VWS V14.01,2013-02-04 16:51:00,
2013-02-04 08:56:00,39.2,37.3,30.41,South,180,0.0,0.0,93,0.00,,---,0.00,VWS V14.01,2013-02-04 16:56:00,
2013-02-04 09:01:00,39.2,37.3,30.41,South,180,0.0,0.0,93,0.00,,---,0.00,VWS V14.01,2013-02-04 17:01:00,
2013-02-04 09:06:00,39.6,37.8,30.40,South,180,0.4,0.4,93,0.00,,---,0.00,VWS V14.01,2013-02-04 17:06:00,
2013-02-04 09:11:00,39.8,38.0,30.40,South,180,1.1,1.1,93,0.00,,---,0.00,VWS V14.01,2013-02-04 17:11:00,
2013-02-04 09:15:00,40.0,38.1,30.40,South,180,0.0,0.0,93,0.00,,---,0.00,VWS V14.01,2013-02-04 17:15:00,
2013-02-04 09:20:00,40.3,38.4,30.40,South,180,0.0,0.0,93,0.00,,---,0.00,VWS V14.01,2013-02-04 17:20:00,
2013-02-04 09:25:00,40.5,38.6,30.40,South,180,0.0,0.0,93,0.00,,---,0.00,VWS V14.01,2013-02-04 17:25:00,
2013-02-04 09:30:00,40.7,38.8,30.40,South,180,0.0,0.0,93,0.00,,---,0.00,VWS V14.01,2013-02-04 17:30:00,
2013-02-04 09:35:00,41.0,39.1,30.40,South,180,0.0,0.0,93,0.00,,---,0.00,VWS V14.01,2013-02-04 17:35:00,
2013-02-04 09:40:00,41.2,39.3,30.39,South,180,0.4,0.4,93,0.00,,---,0.00,VWS V14.01,2013-02-04 17:40:00,
2013-02-04 09:45:00,41.4,39.5,30.39,South,180,1.8,1.8,93,0.00,,---,0.00,VWS V14.01,2013-02-04 17:45:00,
2013-02-04 09:50:00,41.8,39.9,30.39,South,180,1.1,1.1,93,0.00,,---,0.00,VWS V14.01,2013-02-04 17:50:00,
2013-02-04 09:55:00,41.9,40.0,30.39,South,180,1.3,1.3,93,0.00,,---,0.00,VWS V14.01,2013-02-04 17:55:00,
2013-02-04 10:00:00,42.1,40.2,30.39,South,180,1.1,1.1,93,0.00,,---,0.00,VWS V14.01,2013-02-04 18:00:00,
2013-02-04 10:05:00,42.5,40.6,30.39,South,180,0.4,0.4,93,0.00,,---,0.00,VWS V14.01,2013-02-04 18:05:00,
2013-02-04 10:10:00,42.8,40.9,30.39,South,180,0.0,0.0,93,0.00,,---,0.00,VWS V14.01,2013-02-04 18:10:00,
2013-02-04 10:15:00,43.0,41.1,30.39,South,180,0.9,0.9,93,0.00,,---,0.00,VWS V14.01,2013-02-04 18:15:00,
2013-02-04 10:20:00,43.2,41.3,30.39,South,180,1.3,1.3,93,0.00,,---,0.00,VWS V14.01,2013-02-04 18:20:00,
2013-02-04 10:25:00,43.6,41.7,30.39,South,180,1.3,1.3,93,0.00,,---,0.00,VWS V14.01,2013-02-04 18:25:00,
2013-02-04 10:30:00,43.7,41.8,30.39,South,180,1.1,1.1,93,0.00,,---,0.00,VWS V14.01,2013-02-04 18:30:00,
2013-02-04 10:35:00,44.1,41.9,30.39,South,180,1.1,1.3,92,0.00,,---,0.00,VWS V14.01,2013-02-04 18:35:00,
2013-02-04 10:40:00,44.5,42.3,30.38,South,180,1.1,1.1,92,0.00,,---,0.00,VWS V14.01,2013-02-04 18:40:00,
2013-02-04 10:45:00,45.0,42.5,30.38,South,180,1.8,1.8,91,0.00,,---,0.00,VWS V14.01,2013-02-04 18:45:00,
2013-02-04 10:50:00,45.4,42.9,30.38,South,180,0.7,1.1,91,0.00,,---,0.00,VWS V14.01,2013-02-04 18:50:00,
2013-02-04 10:55:00,45.7,42.9,30.38,South,180,0.0,0.0,90,0.00,,---,0.00,VWS V14.01,2013-02-04 18:55:00,
2013-02-04 11:00:00,45.9,43.4,30.38,South,180,0.9,1.3,91,0.00,,---,0.00,VWS V14.01,2013-02-04 19:00:00,
2013-02-04 11:05:00,46.3,43.8,30.38,South,180,3.6,3.6,91,0.00,,---,0.00,VWS V14.01,2013-02-04 19:05:00,
2013-02-04 11:10:00,46.4,43.6,30.37,South,180,0.4,2.9,90,0.00,,---,0.00,VWS V14.01,2013-02-04 19:10:00,
2013-02-04 11:15:00,46.6,43.8,30.38,South,180,0.0,1.1,90,0.00,,---,0.00,VWS V14.01,2013-02-04 19:15:00,
2013-02-04 11:20:00,47.0,43.9,30.37,South,180,0.0,0.0,89,0.00,,---,0.00,VWS V14.01,2013-02-04 19:20:00,
2013-02-04 11:25:00,47.3,43.3,30.38,South,180,1.1,1.1,86,0.00,,---,0.00,VWS V14.01,2013-02-04 19:25:00,
2013-02-04 11:30:00,47.9,43.0,30.38,South,180,1.3,1.3,83,0.00,,---,0.00,VWS V14.01,2013-02-04 19:30:00,
2013-02-04 11:35:00,47.9,43.0,30.37,South,180,0.4,1.8,83,0.00,,---,0.00,VWS V14.01,2013-02-04 19:35:00,
2013-02-04 11:40:00,48.2,43.0,30.37,South,180,3.1,3.1,82,0.00,,---,0.00,VWS V14.01,2013-02-04 19:40:00,
2013-02-04 11:45:00,48.2,43.0,30.37,South,180,1.6,1.6,82,0.00,,---,0.00,VWS V14.01,2013-02-04 19:45:00,
2013-02-04 11:50:00,48.2,42.7,30.37,South,180,1.1,1.1,81,0.00,,---,0.00,VWS V14.01,2013-02-04 19:50:00,
2013-02-04 11:55:00,48.6,42.7,30.36,South,180,0.4,0.4,80,0.00,,---,0.00,VWS V14.01,2013-02-04 19:55:00,
2013-02-04 12:00:00,48.6,42.4,30.36,South,180,1.1,1.1,79,0.00,,---,0.00,VWS V14.01,2013-02-04 20:00:00,
2013-02-04 12:05:00,48.6,42.7,30.36,South,180,0.2,0.2,80,0.00,,---,0.00,VWS V14.01,2013-02-04 20:05:00,
2013-02-04 12:10:00,48.6,43.0,30.36,South,180,1.3,2.2,81,0.00,,---,0.00,VWS V14.01,2013-02-04 20:10:00,
2013-02-04 12:15:00,48.6,42.1,30.36,South,180,2.5,2.5,78,0.00,,---,0.00,VWS V14.01,2013-02-04 20:15:00,
2013-02-04 12:20:00,48.6,42.4,30.35,South,180,1.1,1.1,79,0.00,,---,0.00,VWS V14.01,2013-02-04 20:20:00,
2013-02-04 12:25:00,48.4,42.2,30.35,South,180,0.0,0.4,79,0.00,,---,0.00,VWS V14.01,2013-02-04 20:25:00,
2013-02-04 12:30:00,48.6,43.0,30.35,South,180,0.0,0.0,81,0.00,,---,0.00,VWS V14.01,2013-02-04 20:30:00,
2013-02-04 12:35:00,48.8,43.6,30.34,South,180,0.0,0.0,82,0.00,,---,0.00,VWS V14.01,2013-02-04 20:35:00,
2013-02-04 12:40:00,49.1,43.2,30.34,South,180,0.0,0.0,80,0.00,,---,0.00,VWS V14.01,2013-02-04 20:40:00,
2013-02-04 12:45:00,49.3,43.4,30.33,South,180,1.8,1.8,80,0.00,,---,0.00,VWS V14.01,2013-02-04 20:45:00,
2013-02-04 12:50:00,49.3,43.4,30.33,South,180,0.4,1.1,80,0.00,,---,0.00,VWS V14.01,2013-02-04 20:50:00,
2013-02-04 12:55:00,49.5,43.6,30.33,South,180,0.4,0.4,80,0.00,,---,0.00,VWS V14.01,2013-02-04 20:55:00,
2013-02-04 13:00:00,49.7,43.1,30.32,South,180,0.9,0.9,78,0.00,,---,0.00,VWS V14.01,2013-02-04 21:00:00,
2013-02-04 13:05:00,49.7,43.1,30.32,South,180,0.9,0.9,78,0.00,,---,0.00,VWS V14.01,2013-02-04 21:05:00,
2013-02-04 13:10:00,49.7,43.1,30.32,South,180,0.9,0.9,78,0.00,,---,0.00,VWS V14.01,2013-02-04 21:10:00,
2013-02-04 13:15:00,49.7,43.1,30.32,South,180,0.9,0.9,78,0.00,,---,0.00,VWS V14.01,2013-02-04 21:15:00,
2013-02-04 13:20:00,49.7,43.1,30.32,South,180,0.9,0.9,78,0.00,,---,0.00,VWS V14.01,2013-02-04 21:20:00,
2013-02-04 13:25:00,49.7,43.1,30.32,South,180,0.9,0.9,78,0.00,,---,0.00,VWS V14.01,2013-02-04 21:25:00,
2013-02-04 13:30:00,49.7,43.1,30.32,South,180,0.9,0.9,78,0.00,,---,0.00,VWS V14.01,2013-02-04 21:30:00,
2013-02-04 13:35:00,49.7,43.1,30.32,South,180,0.9,0.9,78,0.00,,---,0.00,VWS V14.01,2013-02-04 21:35:00,
2013-02-04 13:40:00,49.7,43.1,30.32,South,180,0.9,0.9,78,0.00,,---,0.00,VWS V14.01,2013-02-04 21:40:00,
2013-02-04 13:45:00,49.7,43.1,30.32,South,180,0.9,0.9,78,0.00,,---,0.00,VWS V14.01,2013-02-04 21:45:00,
2013-02-04 13:50:00,49.7,43.1,30.32,South,180,0.9,0.9,78,0.00,,---,0.00,VWS V14.01,2013-02-04 21:50:00,
2013-02-04 13:55:00,49.7,43.1,30.32,South,180,0.9,0.9,78,0.00,,---,0.00,VWS V14.01,2013-02-04 21:55:00,
2013-02-04 14:00:00,50.8,43.2,30.29,South,180,1.3,1.3,75,0.00,,---,0.00,VWS V14.01,2013-02-04 22:00:00,
2013-02-04 14:05:00,50.8,43.2,30.29,South,180,1.8,1.8,75,0.00,,---,0.00,VWS V14.01,2013-02-04 22:05:00,
2013-02-04 14:10:00,50.9,43.6,30.29,South,180,2.5,2.5,76,0.00,,---,0.00,VWS V14.01,2013-02-04 22:10:00,
2013-02-04 14:15:00,50.9,43.6,30.28,South,180,0.9,1.1,76,0.00,,---,0.00,VWS V14.01,2013-02-04 22:15:00,
2013-02-04 14:20:00,51.1,43.8,30.28,South,180,2.7,2.7,76,0.00,,---,0.00,VWS V14.01,2013-02-04 22:20:00,
2013-02-04 14:25:00,51.1,43.8,30.28,South,180,0.9,0.9,76,0.00,,---,0.00,VWS V14.01,2013-02-04 22:25:00,
2013-02-04 14:30:00,51.3,44.0,30.27,South,180,1.3,1.3,76,0.00,,---,0.00,VWS V14.01,2013-02-04 22:30:00,
2013-02-04 14:35:00,51.3,43.7,30.27,South,180,0.0,0.0,75,0.00,,---,0.00,VWS V14.01,2013-02-04 22:35:00,
2013-02-04 14:40:00,51.3,43.7,30.27,South,180,0.0,0.0,75,0.00,,---,0.00,VWS V14.01,2013-02-04 22:40:00,
2013-02-04 14:45:00,51.1,43.5,30.27,South,180,0.9,0.9,75,0.00,,---,0.00,VWS V14.01,2013-02-04 22:45:00,
2013-02-04 14:50:00,51.1,43.8,30.26,South,180,0.4,0.4,76,0.00,,---,0.00,VWS V14.01,2013-02-04 22:50:00,
2013-02-04 14:55:00,51.1,43.5,30.26,South,180,0.0,0.0,75,0.00,,---,0.00,VWS V14.01,2013-02-04 22:55:00,
2013-02-04 15:00:00,51.3,44.0,30.26,South,180,1.1,1.1,76,0.00,,---,0.00,VWS V14.01,2013-02-04 23:00:00,
2013-02-04 15:05:00,51.1,43.5,30.25,South,180,1.1,1.1,75,0.00,,---,0.00,VWS V14.01,2013-02-04 23:05:00,
2013-02-04 15:10:00,50.9,43.3,30.25,South,180,0.0,0.0,75,0.00,,---,0.00,VWS V14.01,2013-02-04 23:10:00,
2013-02-04 15:15:00,50.8,43.5,30.25,South,180,0.0,0.0,76,0.00,,---,0.00,VWS V14.01,2013-02-04 23:15:00,
2013-02-04 15:20:00,50.8,43.5,30.25,South,180,0.4,0.4,76,0.00,,---,0.00,VWS V14.01,2013-02-04 23:20:00,
2013-02-04 15:25:00,50.8,43.2,30.25,South,180,0.4,0.4,75,0.00,,---,0.00,VWS V14.01,2013-02-04 23:25:00,
2013-02-04 15:30:00,50.8,43.5,30.25,South,180,0.0,0.0,76,0.00,,---,0.00,VWS V14.01,2013-02-04 23:30:00,
2013-02-04 15:35:00,50.8,43.9,30.25,South,180,1.1,1.1,77,0.00,,---,0.00,VWS V14.01,2013-02-04 23:35:00,
2013-02-04 15:40:00,50.8,44.2,30.25,South,180,0.0,0.0,78,0.00,,---,0.00,VWS V14.01,2013-02-04 23:40:00,
2013-02-04 15:45:00,50.6,44.0,30.25,South,180,0.0,0.0,78,0.00,,---,0.00,VWS V14.01,2013-02-04 23:45:00,
2013-02-04 15:50:00,50.4,43.8,30.25,South,180,0.0,0.0,78,0.00,,---,0.00,VWS V14.01,2013-02-04 23:50:00,
2013-02-04 15:55:00,50.4,43.8,30.25,South,180,0.0,0.0,78,0.00,,---,0.00,VWS V14.01,2013-02-04 23:55:00,
2013-02-04 16:00:00,50.2,43.6,30.25,South,180,0.0,0.0,78,0.00,,---,0.00,VWS V14.01,2013-02-05 00:00:00,
2013-02-04 16:05:00,50.2,43.6,30.25,South,180,0.0,0.0,78,0.00,,---,0.00,VWS V14.01,2013-02-05 00:05:00,
2013-02-04 16:10:00,50.0,43.4,30.25,South,180,0.0,0.0,78,0.00,,---,0.00,VWS V14.01,2013-02-05 00:10:00,
2013-02-04 16:15:00,50.0,43.4,30.26,South,180,0.0,0.0,78,0.00,,---,0.00,VWS V14.01,2013-02-05 00:15:00,
2013-02-04 16:20:00,49.9,43.7,30.26,South,180,0.0,0.0,79,0.00,,---,0.00,VWS V14.01,2013-02-05 00:20:00,
2013-02-04 16:25:00,49.7,43.8,30.26,South,180,0.0,0.0,80,0.00,,---,0.00,VWS V14.01,2013-02-05 00:25:00,
2013-02-04 16:30:00,49.5,43.6,30.26,South,180,0.0,0.0,80,0.00,,---,0.00,VWS V14.01,2013-02-05 00:30:00,
2013-02-04 16:35:00,49.3,43.7,30.26,South,180,0.0,0.0,81,0.00,,---,0.00,VWS V14.01,2013-02-05 00:35:00,
2013-02-04 16:39:00,49.1,43.5,30.27,South,180,0.0,0.0,81,0.00,,---,0.00,VWS V14.01,2013-02-05 00:39:00,
2013-02-04 16:44:00,49.0,43.4,30.27,South,180,0.0,0.0,81,0.00,,---,0.00,VWS V14.01,2013-02-05 00:44:00,
2013-02-04 16:49:00,48.8,43.6,30.27,South,180,0.7,0.7,82,0.00,,---,0.00,VWS V14.01,2013-02-05 00:49:00,
2013-02-04 16:54:00,48.6,43.4,30.26,South,180,0.0,0.0,82,0.00,,---,0.00,VWS V14.01,2013-02-05 00:54:00,
2013-02-04 16:59:00,48.4,43.2,30.26,South,180,0.7,0.7,82,0.00,,---,0.00,VWS V14.01,2013-02-05 00:59:00,
2013-02-04 17:04:00,48.2,43.0,30.26,South,180,0.0,0.0,82,0.00,,---,0.00,VWS V14.01,2013-02-05 01:04:00,
2013-02-04 17:09:00,47.9,42.7,30.26,South,180,0.0,0.0,82,0.00,,---,0.00,VWS V14.01,2013-02-05 01:09:00,
2013-02-04 17:14:00,47.7,42.8,30.26,South,180,0.0,0.0,83,0.00,,---,0.00,VWS V14.01,2013-02-05 01:14:00,
2013-02-04 17:19:00,47.5,42.6,30.25,South,180,1.1,1.1,83,0.00,,---,0.00,VWS V14.01,2013-02-05 01:19:00,
2013-02-04 17:24:00,47.3,42.4,30.25,South,180,0.0,0.0,83,0.00,,---,0.00,VWS V14.01,2013-02-05 01:24:00,
2013-02-04 17:29:00,47.2,42.3,30.25,South,180,0.0,0.0,83,0.00,,---,0.00,VWS V14.01,2013-02-05 01:29:00,
2013-02-04 17:34:00,47.2,42.6,30.25,South,180,0.0,0.0,84,0.00,,---,0.00,VWS V14.01,2013-02-05 01:34:00,
2013-02-04 17:39:00,47.0,42.4,30.25,South,180,0.0,0.0,84,0.00,,---,0.00,VWS V14.01,2013-02-05 01:39:00,
2013-02-04 17:44:00,47.0,42.4,30.25,South,180,0.0,0.0,84,0.00,,---,0.00,VWS V14.01,2013-02-05 01:44:00,
2013-02-04 17:49:00,46.8,42.5,30.25,South,180,0.0,0.0,85,0.00,,---,0.00,VWS V14.01,2013-02-05 01:49:00,
2013-02-04 17:54:00,46.6,42.3,30.25,South,180,0.0,0.0,85,0.00,,---,0.00,VWS V14.01,2013-02-05 01:54:00,
2013-02-04 17:59:00,46.4,42.1,30.25,South,180,0.0,0.0,85,0.00,,---,0.00,VWS V14.01,2013-02-05 01:59:00,
2013-02-04 18:04:00,46.4,42.1,30.24,South,180,0.0,0.0,85,0.00,,---,0.00,VWS V14.01,2013-02-05 02:04:00,
2013-02-04 18:09:00,46.4,42.1,30.25,South,180,0.0,0.0,85,0.00,,---,0.00,VWS V14.01,2013-02-05 02:09:00,
2013-02-04 18:14:00,46.4,42.1,30.25,South,180,0.0,0.0,85,0.00,,---,0.00,VWS V14.01,2013-02-05 02:14:00,
2013-02-04 18:19:00,46.3,42.3,30.24,South,180,1.1,1.1,86,0.00,,---,0.00,VWS V14.01,2013-02-05 02:19:00,
2013-02-04 18:24:00,46.1,42.2,30.23,South,180,0.0,0.0,86,0.00,,---,0.00,VWS V14.01,2013-02-05 02:24:00,
2013-02-04 18:29:00,45.9,42.0,30.22,South,180,0.0,0.0,86,0.00,,---,0.00,VWS V14.01,2013-02-05 02:29:00,
2013-02-04 18:34:00,45.7,41.8,30.22,South,180,0.0,0.4,86,0.00,,---,0.00,VWS V14.01,2013-02-05 02:34:00,
2013-02-04 18:39:00,45.7,42.1,30.21,South,180,0.0,0.0,87,0.00,,---,0.00,VWS V14.01,2013-02-05 02:39:00,
2013-02-04 18:44:00,45.5,41.9,30.20,South,180,0.4,1.1,87,0.00,,---,0.00,VWS V14.01,2013-02-05 02:44:00,
2013-02-04 18:49:00,45.4,41.8,30.19,South,180,0.0,0.0,87,0.00,,---,0.00,VWS V14.01,2013-02-05 02:49:00,
2013-02-04 18:54:00,45.4,41.8,30.18,South,180,0.0,0.0,87,0.00,,---,0.00,VWS V14.01,2013-02-05 02:54:00,
2013-02-04 18:59:00,45.2,41.9,30.17,South,180,1.1,1.1,88,0.00,,---,0.00,VWS V14.01,2013-02-05 02:59:00,
2013-02-04 19:04:00,45.2,41.9,30.17,South,180,0.4,0.4,88,0.00,,---,0.00,VWS V14.01,2013-02-05 03:04:00,
2013-02-04 19:09:00,45.0,41.7,30.16,South,180,0.0,0.0,88,0.00,,---,0.00,VWS V14.01,2013-02-05 03:09:00,
2013-02-04 19:14:00,45.0,41.7,30.15,South,180,1.1,1.1,88,0.00,,---,0.00,VWS V14.01,2013-02-05 03:14:00,
2013-02-04 19:19:00,45.0,41.7,30.14,South,180,1.1,1.1,88,0.00,,---,0.00,VWS V14.01,2013-02-05 03:19:00,
2013-02-04 19:24:00,44.8,41.5,30.15,South,180,1.6,1.6,88,0.00,,---,0.00,VWS V14.01,2013-02-05 03:24:00,
2013-02-04 19:25:00,44.8,41.5,30.14,South,180,2.7,2.7,88,0.00,,---,0.00,VWS V14.01,2013-02-05 03:25:00,
2013-02-04 19:29:00,44.8,41.5,30.14,South,180,2.7,2.7,88,0.00,,---,0.00,VWS V14.01,2013-02-05 03:29:00,
2013-02-04 19:34:00,44.8,41.5,30.14,South,180,2.7,2.7,88,0.00,,---,0.00,VWS V14.01,2013-02-05 03:34:00,
2013-02-04 19:39:00,44.8,41.5,30.14,South,180,2.7,2.7,88,0.00,,---,0.00,VWS V14.01,2013-02-05 03:39:00,
2013-02-04 19:44:00,44.8,41.5,30.14,South,180,2.7,2.7,88,0.00,,---,0.00,VWS V14.01,2013-02-05 03:44:00,
2013-02-04 19:49:00,44.8,41.5,30.14,South,180,2.7,2.7,88,0.00,,---,0.00,VWS V14.01,2013-02-05 03:49:00,
2013-02-04 19:54:00,44.8,41.5,30.14,South,180,2.7,2.7,88,0.00,,---,0.00,VWS V14.01,2013-02-05 03:54:00,
2013-02-04 19:59:00,44.8,41.5,30.14,South,180,2.7,2.7,88,0.00,,---,0.00,VWS V14.01,2013-02-05 03:59:00,
2013-02-04 20:04:00,44.6,41.8,30.14,South,180,0.4,0.4,90,0.00,,---,0.00,VWS V14.01,2013-02-05 04:04:00,
2013-02-04 20:09:00,44.6,41.8,30.15,South,180,0.4,0.4,90,0.00,,---,0.00,VWS V14.01,2013-02-05 04:09:00,
2013-02-04 20:14:00,44.5,41.2,30.15,South,180,0.0,0.0,88,0.00,,---,0.00,VWS V14.01,2013-02-05 04:14:00,
2013-02-04 20:19:00,44.3,41.3,30.15,South,180,0.2,0.2,89,0.00,,---,0.00,VWS V14.01,2013-02-05 04:19:00,
2013-02-04 20:24:00,44.1,41.1,30.16,South,180,0.4,1.8,89,0.00,,---,0.00,VWS V14.01,2013-02-05 04:24:00,
2013-02-04 20:29:00,43.9,40.9,30.16,South,180,1.1,1.1,89,0.00,,---,0.00,VWS V14.01,2013-02-05 04:29:00,
2013-02-04 20:34:00,43.7,40.7,30.16,South,180,0.0,0.0,89,0.00,,---,0.00,VWS V14.01,2013-02-05 04:34:00,
2013-02-04 20:39:00,43.7,40.7,30.16,South,180,0.0,0.0,89,0.00,,---,0.00,VWS V14.01,2013-02-05 04:39:00,
2013-02-04 20:44:00,43.6,40.6,30.16,South,180,0.0,0.0,89,0.00,,---,0.00,VWS V14.01,2013-02-05 04:44:00,
2013-02-04 20:49:00,43.6,40.6,30.16,South,180,0.4,0.4,89,0.00,,---,0.00,VWS V14.01,2013-02-05 04:49:00,
2013-02-04 20:54:00,43.6,40.6,30.16,South,180,0.0,0.0,89,0.00,,---,0.00,VWS V14.01,2013-02-05 04:54:00,
2013-02-04 20:59:00,43.6,40.6,30.16,South,180,0.0,0.0,89,0.00,,---,0.00,VWS V14.01,2013-02-05 04:59:00,
2013-02-04 21:00:00,43.6,40.6,30.16,South,180,0.0,0.0,89,0.00,,---,0.00,VWS V14.01,2013-02-05 05:00:00,
2013-02-04 21:05:00,43.4,40.4,30.16,South,180,0.0,0.0,89,0.00,,---,0.00,VWS V14.01,2013-02-05 05:05:00,
2013-02-04 21:10:00,43.4,40.4,30.16,South,180,0.4,0.4,89,0.00,,---,0.00,VWS V14.01,2013-02-05 05:10:00,
2013-02-04 21:15:00,43.2,40.5,30.16,South,180,0.0,0.0,90,0.00,,---,0.00,VWS V14.01,2013-02-05 05:15:00,
2013-02-04 21:20:00,43.2,40.5,30.16,South,180,0.0,0.0,90,0.00,,---,0.00,VWS V14.01,2013-02-05 05:20:00,
2013-02-04 21:25:00,43.2,40.5,30.16,South,180,0.7,0.7,90,0.00,,---,0.00,VWS V14.01,2013-02-05 05:25:00,
2013-02-04 21:30:00,43.2,40.5,30.17,South,180,0.0,0.0,90,0.00,,---,0.00,VWS V14.01,2013-02-05 05:30:00,
2013-02-04 21:35:00,43.2,40.5,30.16,South,180,0.0,0.0,90,0.00,,---,0.00,VWS V14.01,2013-02-05 05:35:00,
2013-02-04 21:40:00,43.0,40.3,30.16,South,180,0.0,0.0,90,0.00,,---,0.00,VWS V14.01,2013-02-05 05:40:00,
2013-02-04 21:45:00,42.8,40.1,30.17,South,180,0.0,0.0,90,0.00,,---,0.00,VWS V14.01,2013-02-05 05:45:00,
2013-02-04 21:50:00,42.7,40.0,30.17,South,180,0.0,0.0,90,0.00,,---,0.00,VWS V14.01,2013-02-05 05:50:00,
2013-02-04 21:55:00,42.7,40.0,30.17,South,180,0.0,0.0,90,0.00,,---,0.00,VWS V14.01,2013-02-05 05:55:00,
2013-02-04 22:00:00,42.5,39.8,30.17,South,180,0.4,0.7,90,0.00,,---,0.00,VWS V14.01,2013-02-05 06:00:00,
2013-02-04 22:05:00,42.3,39.6,30.17,South,180,0.0,0.0,90,0.00,,---,0.00,VWS V14.01,2013-02-05 06:05:00,
2013-02-04 22:10:00,42.3,39.6,30.17,South,180,0.0,0.0,90,0.00,,---,0.00,VWS V14.01,2013-02-05 06:10:00,
2013-02-04 22:15:00,42.1,39.4,30.16,South,180,2.9,2.9,90,0.00,,---,0.00,VWS V14.01,2013-02-05 06:15:00,
2013-02-04 22:20:00,42.1,39.4,30.16,South,180,1.1,1.1,90,0.00,,---,0.00,VWS V14.01,2013-02-05 06:20:00,
2013-02-04 22:25:00,42.1,39.4,30.15,South,180,1.8,1.8,90,0.00,,---,0.00,VWS V14.01,2013-02-05 06:25:00,
2013-02-04 22:30:00,42.1,39.4,30.15,South,180,0.0,0.0,90,0.00,,---,0.00,VWS V14.01,2013-02-05 06:30:00,
2013-02-04 22:35:00,41.9,39.2,30.15,South,180,0.7,0.7,90,0.00,,---,0.00,VWS V14.01,2013-02-05 06:35:00,
2013-02-04 22:40:00,41.8,39.1,30.15,South,180,1.6,1.6,90,0.00,,---,0.00,VWS V14.01,2013-02-05 06:40:00,
2013-02-04 22:45:00,41.6,39.2,30.15,South,180,1.8,1.8,91,0.00,,---,0.00,VWS V14.01,2013-02-05 06:45:00,
2013-02-04 22:50:00,41.4,38.7,30.15,South,180,0.0,0.0,90,0.00,,---,0.00,VWS V14.01,2013-02-05 06:50:00,
2013-02-04 22:55:00,41.4,39.0,30.15,South,180,0.0,0.0,91,0.00,,---,0.00,VWS V14.01,2013-02-05 06:55:00,
2013-02-04 23:00:00,41.4,38.7,30.15,South,180,0.4,0.4,90,0.00,,---,0.00,VWS V14.01,2013-02-05 07:00:00,
2013-02-04 23:05:00,41.4,38.7,30.15,South,180,0.4,0.4,90,0.00,,---,0.00,VWS V14.01,2013-02-05 07:05:00,
2013-02-04 23:09:00,41.4,38.7,30.15,South,180,0.4,0.4,90,0.00,,---,0.00,VWS V14.01,2013-02-05 07:09:00,
2013-02-04 23:14:00,41.4,38.7,30.15,South,180,0.4,0.4,90,0.00,,---,0.00,VWS V14.01,2013-02-05 07:14:00,
2013-02-04 23:19:00,41.4,38.7,30.15,South,180,0.4,0.4,90,0.00,,---,0.00,VWS V14.01,2013-02-05 07:19:00,
2013-02-04 23:24:00,41.4,38.7,30.15,South,180,0.4,0.4,90,0.00,,---,0.00,VWS V14.01,2013-02-05 07:24:00,
2013-02-04 23:29:00,41.4,38.7,30.15,South,180,0.4,0.4,90,0.00,,---,0.00,VWS V14.01,2013-02-05 07:29:00,
2013-02-04 23:34:00,41.4,38.7,30.15,South,180,0.4,0.4,90,0.00,,---,0.00,VWS V14.01,2013-02-05 07:34:00,
2013-02-04 23:39:00,41.4,38.7,30.15,South,180,0.4,0.4,90,0.00,,---,0.00,VWS V14.01,2013-02-05 07:39:00,
2013-02-04 23:44:00,41.4,38.7,30.15,South,180,0.4,0.4,90,0.00,,---,0.00,VWS V14.01,2013-02-05 07:44:00,
2013-02-04 23:49:00,41.4,38.7,30.15,South,180,0.4,0.4,90,0.00,,---,0.00,VWS V14.01,2013-02-05 07:49:00,
2013-02-04 23:54:00,41.4,38.7,30.15,South,180,0.4,0.4,90,0.00,,---,0.00,VWS V14.01,2013-02-05 07:54:00,
2013-02-04 23:59:00,41.4,38.7,30.15,South,180,0.4,0.4,90,0.00,,---,0.00,VWS V14.01,2013-02-05 07:59:00,